Grasshopper Junction, Arizona
Current Conditions -  °F | °C
As of 3:51 AM on Friday 24 Oct 2014 (Local Time) from KIGM Reporting Station
Clear Clear  
Wind Chill: 56°   Ceiling: Unl
Heat Index: 56°   Visibility: 10mi
Dew Point: 37°   Wind: 7mph
Humidity: 49%   Direction: 190°S
Pressure: 30.13"   Gusts: NA
Location:  35.2036°N, 114.02°W
Report Text: KIGM 241051Z AUTO 19006KT 10SM CLR 13/03 A3013 RMK AO2 SLP143 T01330028
Loading
Personal Weather Stations






























Interactive Weather Map
Tropical Storm Tracking
New forecast layout! Learn more

10-Day Weather Forecast

Advertisements
Track Severe Weather on mobile